Time;durP1;ratioP1;P1;durP2;ratioP2;P2;SDS_P1;SDS_P2;PMS_P1;PMS_P2;Temp;Humidity;BMP_temperature;BMP_pressure;BME280_temperature;BME280_humidity;BME280_pressure;Samples;Min_cycle;Max_cycle;Signal;HPM_P1;HPM_P2
2023/05/05 00:00:53;;;;;;;13.87;8.70;;;;;;;16.14;84.28;64342.72;4959336;29;20364;-93
2023/05/05 00:03:23;;;;;;;14.57;9.17;;;;;;;16.12;85.49;64340.72;4960496;29;20367;-92
2023/05/05 00:05:50;;;;;;;13.10;9.20;;;;;;;16.09;87.64;64337.22;4959688;29;20055;-92
2023/05/05 00:08:16;;;;;;;12.35;9.27;;;;;;;16.05;88.31;64333.63;4958896;29;20016;-93
2023/05/05 00:10:44;;;;;;;11.13;9.63;;;;;;;16.02;89.08;64329.81;4960401;29;20054;-93
2023/05/05 00:13:10;;;;;;;15.45;10.98;;;;;;;15.98;90.55;64326.13;4942499;29;20020;-93
2023/05/05 00:15:37;;;;;;;13.50;9.63;;;;;;;15.94;90.67;64322.44;4960925;29;20050;-92
2023/05/05 00:18:04;;;;;;;16.80;10.23;;;;;;;15.90;91.84;64318.53;4960940;29;20027;-93
2023/05/05 00:20:30;;;;;;;14.53;10.50;;;;;;;15.87;92.71;64314.84;4962609;29;20034;-93
2023/05/05 00:22:55;;;;;;;17.70;10.67;;;;;;;15.83;94.51;64311.25;4941872;29;20731;-93
2023/05/05 00:25:21;;;;;;;14.97;10.37;;;;;;;15.80;94.50;64307.50;4956509;29;20031;-92
2023/05/05 00:27:46;;;;;;;14.43;10.73;;;;;;;15.77;95.19;64303.91;4958160;29;20023;-94
2023/05/05 00:30:12;;;;;;;16.23;10.50;;;;;;;15.73;96.41;64300.59;4958088;29;20023;-93
2023/05/05 00:32:38;;;;;;;15.53;10.43;;;;;;;15.70;96.48;64297.16;4958113;29;20035;-92
2023/05/05 00:35:04;;;;;;;18.20;11.40;;;;;;;15.66;97.13;64293.31;4958753;29;20302;-92
2023/05/05 00:37:29;;;;;;;16.85;11.27;;;;;;;15.62;98.91;64289.13;4958100;29;20093;-93
2023/05/05 00:39:54;;;;;;;18.80;10.93;;;;;;;15.58;99.61;64285.13;4958273;29;20114;-93
2023/05/05 00:42:21;;;;;;;14.83;11.40;;;;;;;15.55;99.60;64281.06;4957390;29;20028;-93
2023/05/05 00:44:48;;;;;;;16.42;11.68;;;;;;;15.50;100.00;64276.88;4957713;29;20031;-93
2023/05/05 00:47:15;;;;;;;15.32;11.80;;;;;;;15.46;100.00;64272.47;4957199;29;20154;-92
2023/05/05 00:49:41;;;;;;;15.65;12.15;;;;;;;15.42;100.00;64268.53;4959078;29;20027;-93
2023/05/05 00:52:07;;;;;;;17.75;12.07;;;;;;;15.38;100.00;64264.13;4958437;28;20110;-93
2023/05/05 00:54:37;;;;;;;17.38;11.98;;;;;;;15.34;100.00;64259.63;4959282;29;20484;-92
2023/05/05 00:57:02;;;;;;;15.37;12.03;;;;;;;15.29;100.00;64255.28;4958730;29;20034;-92
2023/05/05 00:59:29;;;;;;;16.50;12.37;;;;;;;15.26;100.00;64251.34;4958771;28;20378;-93
2023/05/05 01:01:55;;;;;;;19.55;13.23;;;;;;;15.22;100.00;64247.78;4959029;29;20035;-93
2023/05/05 01:04:20;;;;;;;16.47;13.17;;;;;;;15.19;100.00;64244.28;4957041;29;20059;-92
2023/05/05 01:06:56;;;;;;;19.03;13.80;;;;;;;15.16;100.00;64241.34;4958230;29;20091;-93
2023/05/05 01:09:49;;;;;;;18.92;12.93;;;;;;;15.13;100.00;64238.34;4959030;29;20070;-93
2023/05/05 01:12:40;;;;;;;18.95;12.82;;;;;;;15.10;100.00;64234.59;4954632;29;20046;-93
2023/05/05 01:15:16;;;;;;;16.92;12.32;;;;;;;15.06;100.00;64230.69;4957534;29;20058;-93
2023/05/05 01:17:46;;;;;;;17.73;12.55;;;;;;;15.02;100.00;64226.66;4958466;29;20031;-92
2023/05/05 01:20:12;;;;;;;20.27;12.32;;;;;;;14.97;100.00;64222.25;4957889;29;20066;-93
2023/05/05 01:22:44;;;;;;;18.03;12.53;;;;;;;14.93;100.00;64217.00;4958501;29;20506;-93
2023/05/05 01:26:01;;;;;;;17.55;12.80;;;;;;;14.88;100.00;64211.75;4940908;29;20023;-92
2023/05/05 01:28:44;;;;;;;19.10;12.70;;;;;;;14.83;100.00;64207.19;4947834;29;20070;-94
2023/05/05 01:31:31;;;;;;;17.60;12.98;;;;;;;14.80;100.00;64203.50;4960517;29;20641;-93
2023/05/05 01:34:04;;;;;;;19.70;12.60;;;;;;;14.76;100.00;64200.66;4962160;29;20035;-93
2023/05/05 01:36:38;;;;;;;20.13;13.03;;;;;;;14.74;100.00;64198.66;4961752;29;20283;-93
2023/05/05 01:39:07;;;;;;;17.92;13.10;;;;;;;14.72;100.00;64196.69;4961793;29;20035;-93
2023/05/05 01:41:40;;;;;;;16.63;12.88;;;;;;;14.70;100.00;64194.69;4962174;29;20028;-94
2023/05/05 01:44:06;;;;;;;18.23;12.00;;;;;;;14.68;100.00;64192.44;4962761;29;20039;-92
2023/05/05 01:46:34;;;;;;;17.80;12.68;;;;;;;14.65;100.00;64189.97;4962964;29;20054;-91
2023/05/05 01:49:00;;;;;;;18.30;12.85;;;;;;;14.61;100.00;64185.81;4961063;29;20078;-92
2023/05/05 01:51:26;;;;;;;15.85;12.48;;;;;;;14.58;100.00;64182.31;4961295;28;20039;-92
2023/05/05 01:53:56;;;;;;;17.37;12.73;;;;;;;14.54;100.00;64178.56;4961148;29;20030;-93
2023/05/05 01:56:23;;;;;;;16.40;11.87;;;;;;;14.50;100.00;64174.31;4960897;29;20287;-93
2023/05/05 01:58:50;;;;;;;17.58;12.02;;;;;;;14.46;100.00;64170.72;4964041;29;20037;-92
2023/05/05 02:01:20;;;;;;;17.63;12.73;;;;;;;14.42;100.00;64166.66;4966502;29;20541;-93
2023/05/05 02:03:48;;;;;;;17.85;12.05;;;;;;;14.38;100.00;64162.06;4968572;29;20027;-92
2023/05/05 02:06:15;;;;;;;19.92;11.80;;;;;;;14.33;100.00;64157.56;4976197;28;20032;-93
2023/05/05 02:08:42;;;;;;;19.83;11.55;;;;;;;14.28;100.00;64151.81;4975325;29;20022;-92
2023/05/05 02:11:10;;;;;;;19.80;11.30;;;;;;;14.22;100.00;64146.06;4979526;28;20027;-92
2023/05/05 02:13:37;;;;;;;13.95;10.90;;;;;;;14.16;100.00;64139.72;4979542;29;20128;-93
2023/05/05 02:16:05;;;;;;;15.07;10.95;;;;;;;14.10;100.00;64133.31;4979496;28;20023;-92
2023/05/05 02:18:34;;;;;;;16.80;10.83;;;;;;;14.03;100.00;64126.31;4978343;29;20019;-92
2023/05/05 02:21:00;;;;;;;15.23;9.80;;;;;;;13.97;100.00;64120.31;4970582;29;20414;-93
2023/05/05 02:23:26;;;;;;;10.88;8.55;;;;;;;13.90;100.00;64113.56;4948913;29;20513;-93
2023/05/05 02:25:56;;;;;;;13.88;8.90;;;;;;;13.83;100.00;64107.06;4964536;29;20122;-93
2023/05/05 02:28:32;;;;;;;12.23;8.98;;;;;;;13.77;100.00;64100.31;4965315;29;20114;-93
2023/05/05 02:30:59;;;;;;;10.75;8.40;;;;;;;13.70;100.00;64094.00;4964022;29;20058;-93
2023/05/05 02:33:27;;;;;;;9.60;7.40;;;;;;;13.63;100.00;64087.00;4965226;29;20101;-93
2023/05/05 02:35:54;;;;;;;12.17;7.10;;;;;;;13.56;100.00;64079.50;4963662;29;20085;-92
2023/05/05 02:38:25;;;;;;;9.47;7.60;;;;;;;13.49;100.00;64072.41;4964697;29;20295;-93
2023/05/05 02:40:53;;;;;;;8.50;6.03;;;;;;;13.42;100.00;64065.75;4963849;29;20031;-93
2023/05/05 02:43:22;;;;;;;8.65;6.00;;;;;;;13.35;100.00;64058.50;4963406;29;20115;-93
2023/05/05 02:45:48;;;;;;;9.57;6.18;;;;;;;13.28;100.00;64051.41;4964603;29;20027;-93
2023/05/05 02:48:13;;;;;;;10.68;6.10;;;;;;;13.22;100.00;64044.91;4964390;29;20027;-92
2023/05/05 02:50:39;;;;;;;7.27;5.53;;;;;;;13.15;100.00;64038.44;4965496;29;20031;-93
2023/05/05 02:53:05;;;;;;;9.73;6.00;;;;;;;13.09;100.00;64032.09;4947175;29;20063;-93
2023/05/05 02:55:49;;;;;;;8.87;5.40;;;;;;;13.02;100.00;64025.94;4964756;29;20297;-93
2023/05/05 02:58:29;;;;;;;8.88;6.18;;;;;;;12.96;100.00;64019.44;4965299;29;20015;-93
2023/05/05 03:01:26;;;;;;;10.23;6.60;;;;;;;12.90;100.00;64013.19;4965886;29;20244;-93
2023/05/05 03:04:06;;;;;;;10.23;6.45;;;;;;;12.84;100.00;64007.28;4968327;29;20087;-93
2023/05/05 03:06:37;;;;;;;11.20;8.88;;;;;;;12.78;100.00;64001.38;4964004;29;20050;-92
2023/05/05 03:09:19;;;;;;;13.60;9.80;;;;;;;12.72;100.00;63995.47;4963722;29;20023;-93
2023/05/05 03:11:58;;;;;;;14.43;10.50;;;;;;;12.66;100.00;63989.81;4964647;29;20030;-92
2023/05/05 03:14:27;;;;;;;17.35;11.57;;;;;;;12.61;100.00;63983.97;4964042;29;20063;-93
2023/05/05 03:16:55;;;;;;;16.70;11.07;;;;;;;12.55;100.00;63978.50;4963561;29;20061;-93
2023/05/05 03:19:22;;;;;;;18.30;12.10;;;;;;;12.50;100.00;63973.34;4963973;29;20027;-93
2023/05/05 03:21:47;;;;;;;17.47;12.43;;;;;;;12.45;100.00;63968.25;4962769;28;20308;-93
2023/05/05 03:24:17;;;;;;;20.00;13.05;;;;;;;12.40;100.00;63963.19;4963739;29;20486;-92
2023/05/05 03:26:44;;;;;;;18.95;13.23;;;;;;;12.36;100.00;63958.53;4963334;29;20039;-92
2023/05/05 03:29:09;;;;;;;19.25;13.73;;;;;;;12.31;100.00;63954.19;4962793;29;20491;-93
2023/05/05 03:31:35;;;;;;;20.10;13.00;;;;;;;12.27;100.00;63950.03;4963127;29;20031;-92
2023/05/05 03:34:00;;;;;;;18.90;12.63;;;;;;;12.23;100.00;63946.38;4962458;29;20114;-93
2023/05/05 03:36:28;;;;;;;18.37;12.83;;;;;;;12.19;100.00;63942.13;4945307;29;20405;-93
2023/05/05 03:38:54;;;;;;;19.73;12.68;;;;;;;12.15;100.00;63937.97;4962265;29;20040;-93
2023/05/05 03:41:21;;;;;;;19.92;13.07;;;;;;;12.11;100.00;63933.88;4961121;29;20772;-93
2023/05/05 03:43:46;;;;;;;19.60;12.17;;;;;;;12.07;100.00;63930.41;4962993;29;20031;-93
2023/05/05 03:46:12;;;;;;;23.60;12.50;;;;;;;12.04;100.00;63926.41;4962273;29;20824;-93
2023/05/05 03:48:37;;;;;;;18.10;12.50;;;;;;;12.00;100.00;63923.22;4960975;29;20452;-92
2023/05/05 03:51:02;;;;;;;16.43;11.47;;;;;;;11.96;100.00;63919.91;4962196;28;20516;-94
2023/05/05 03:53:28;;;;;;;18.20;11.50;;;;;;;11.93;100.00;63916.16;4962542;29;20486;-93
2023/05/05 03:55:53;;;;;;;16.05;11.73;;;;;;;11.90;100.00;63913.16;4962739;29;20038;-93
2023/05/05 03:58:18;;;;;;;16.20;11.70;;;;;;;11.87;100.00;63910.00;4963008;29;20055;-93
2023/05/05 04:00:43;;;;;;;17.37;10.97;;;;;;;11.84;100.00;63906.66;4963579;29;20024;-93
2023/05/05 04:03:09;;;;;;;19.87;11.73;;;;;;;11.80;100.00;63903.25;4962875;29;20026;-93
2023/05/05 04:05:35;;;;;;;17.73;12.02;;;;;;;11.77;100.00;63900.28;4963025;29;20094;-93
2023/05/05 04:08:00;;;;;;;18.43;11.40;;;;;;;11.74;100.00;63896.94;4961948;29;20031;-93
2023/05/05 04:10:26;;;;;;;18.20;11.90;;;;;;;11.71;100.00;63893.69;4963027;29;20031;-93
2023/05/05 04:12:51;;;;;;;26.38;12.02;;;;;;;11.68;100.00;63890.13;4962879;29;20434;-92
2023/05/05 04:15:16;;;;;;;23.40;12.30;;;;;;;11.64;100.00;63887.47;4944460;29;20075;-94
2023/05/05 04:17:41;;;;;;;18.17;12.37;;;;;;;11.61;100.00;63883.94;4961991;29;20019;-93
2023/05/05 04:20:08;;;;;;;19.93;11.87;;;;;;;11.58;100.00;63880.88;4961352;29;20027;-93
2023/05/05 04:22:33;;;;;;;20.17;11.82;;;;;;;11.55;100.00;63877.97;4962424;29;20023;-94
2023/05/05 04:24:58;;;;;;;20.57;11.87;;;;;;;11.52;100.00;63875.47;4962781;29;20383;-92
2023/05/05 04:27:25;;;;;;;17.87;11.70;;;;;;;11.50;100.00;63873.00;4962113;29;20062;-93
2023/05/05 04:29:50;;;;;;;14.90;10.95;;;;;;;11.48;100.00;63870.72;4962477;28;20031;-93
2023/05/05 04:32:16;;;;;;;18.80;11.20;;;;;;;11.46;100.00;63868.81;4962234;29;20038;-94
2023/05/05 04:34:41;;;;;;;14.47;10.40;;;;;;;11.44;100.00;63867.75;4960991;28;20650;-94
2023/05/05 04:37:07;;;;;;;14.80;10.63;;;;;;;11.43;100.00;63866.50;4961463;29;20029;-94
2023/05/05 04:39:32;;;;;;;14.27;10.40;;;;;;;11.42;100.00;63865.91;4962643;29;20023;-93
2023/05/05 04:41:58;;;;;;;16.63;11.17;;;;;;;11.42;100.00;63866.00;4943757;29;20023;-94
2023/05/05 04:44:23;;;;;;;12.70;9.57;;;;;;;11.42;100.00;63865.56;4962398;29;20028;-93
2023/05/05 04:46:48;;;;;;;17.57;10.87;;;;;;;11.42;100.00;63866.00;4961047;29;20394;-93
2023/05/05 04:49:13;;;;;;;14.15;9.80;;;;;;;11.42;100.00;63866.16;4961261;29;20042;-94
2023/05/05 04:51:42;;;;;;;15.60;9.70;;;;;;;11.42;100.00;63866.41;4961291;28;20059;-92
2023/05/05 04:54:07;;;;;;;15.13;9.97;;;;;;;11.42;100.00;63866.75;4962344;29;20046;-93
2023/05/05 04:56:32;;;;;;;15.07;9.47;;;;;;;11.42;100.00;63866.81;4961987;29;20454;-93
2023/05/05 04:58:58;;;;;;;15.83;10.70;;;;;;;11.42;100.00;63866.81;4961309;29;20035;-93
2023/05/05 05:01:23;;;;;;;14.10;9.87;;;;;;;11.42;100.00;63866.97;4960967;29;20059;-93
2023/05/05 05:03:49;;;;;;;13.90;10.27;;;;;;;11.42;100.00;63867.09;4961065;29;20030;-93
2023/05/05 05:06:15;;;;;;;14.73;9.93;;;;;;;11.43;100.00;63867.66;4942530;29;20031;-93
2023/05/05 05:08:41;;;;;;;16.00;10.53;;;;;;;11.44;100.00;63868.97;4944717;29;20283;-93
2023/05/05 05:11:06;;;;;;;14.05;10.23;;;;;;;11.46;100.00;63871.06;4962355;29;20106;-92
2023/05/05 05:13:32;;;;;;;15.10;9.63;;;;;;;11.49;100.00;63873.72;4962392;29;20036;-93
2023/05/05 05:15:58;;;;;;;16.23;9.75;;;;;;;11.52;100.00;63877.47;4961969;29;20094;-93
2023/05/05 05:18:23;;;;;;;16.60;10.27;;;;;;;11.57;100.00;63882.38;4960975;29;20123;-93
2023/05/05 05:20:48;;;;;;;12.83;9.33;;;;;;;11.63;100.00;63887.88;4961849;29;20031;-91
2023/05/05 05:23:13;;;;;;;16.17;10.27;;;;;;;11.72;100.00;63896.69;4960922;29;20053;-94
2023/05/05 05:25:39;;;;;;;17.00;9.27;;;;;;;11.82;100.00;63907.25;4943148;29;20113;-94
2023/05/05 05:28:04;;;;;;;12.75;9.38;;;;;;;11.93;100.00;63917.97;4960489;29;20271;-92
2023/05/05 05:30:29;;;;;;;15.97;10.40;;;;;;;12.03;100.00;63928.31;4960773;29;20399;-93
2023/05/05 05:32:55;;;;;;;12.10;9.23;;;;;;;12.14;100.00;63939.13;4960699;29;20031;-92
2023/05/05 05:35:20;;;;;;;15.63;10.67;;;;;;;12.25;100.00;63949.78;4960530;29;20054;-93
2023/05/05 05:37:46;;;;;;;16.03;10.53;;;;;;;12.36;100.00;63961.44;4962155;29;20035;-93
2023/05/05 05:40:12;;;;;;;14.40;10.25;;;;;;;12.47;100.00;63972.00;4962881;29;20034;-93
2023/05/05 05:42:38;;;;;;;12.68;9.88;;;;;;;12.57;100.00;63982.41;4964626;29;20114;-93
2023/05/05 05:45:05;;;;;;;15.15;10.40;;;;;;;12.67;100.00;63992.63;4962315;28;20035;-93
2023/05/05 05:47:30;;;;;;;14.23;10.30;;;;;;;12.76;100.00;64001.97;4966116;29;20118;-93
2023/05/05 05:49:55;;;;;;;16.30;10.87;;;;;;;12.85;100.00;64010.88;4965573;29;20039;-93
2023/05/05 05:52:22;;;;;;;16.90;10.20;;;;;;;12.93;100.00;64019.63;4965000;28;20125;-94
2023/05/05 05:54:48;;;;;;;14.50;10.38;;;;;;;13.00;100.00;64027.03;4965484;29;20031;-93
2023/05/05 05:57:13;;;;;;;17.27;10.57;;;;;;;13.07;100.00;64034.28;4965821;29;20070;-93
2023/05/05 05:59:38;;;;;;;14.23;10.53;;;;;;;13.14;100.00;64041.34;4963196;29;20053;-93
2023/05/05 06:02:04;;;;;;;16.40;10.50;;;;;;;13.21;100.00;64048.34;4964742;29;20024;-94
2023/05/05 06:04:30;;;;;;;14.17;10.00;;;;;;;13.28;100.00;64055.19;4964611;29;20035;-93
2023/05/05 06:06:56;;;;;;;15.95;9.95;;;;;;;13.34;100.00;64061.91;4964619;29;20082;-94
2023/05/05 06:09:21;;;;;;;12.50;10.00;;;;;;;13.40;100.00;64068.25;4963482;29;20284;-93
2023/05/05 06:11:47;;;;;;;12.63;8.73;;;;;;;13.47;100.00;64075.41;4963584;29;20055;-93
2023/05/05 06:14:12;;;;;;;12.73;9.20;;;;;;;13.54;100.00;64082.25;4966488;29;20395;-93
2023/05/05 06:16:37;;;;;;;12.70;9.67;;;;;;;13.61;100.00;64089.59;4967690;29;20026;-93
2023/05/05 06:19:08;;;;;;;17.93;10.27;;;;;;;13.68;100.00;64096.84;4963732;29;20054;-93
2023/05/05 06:21:34;;;;;;;17.05;11.38;;;;;;;13.76;100.00;64105.25;4966066;29;20027;-94
2023/05/05 06:23:59;;;;;;;18.73;11.88;;;;;;;13.85;100.00;64113.66;4946032;29;20034;-92
2023/05/05 06:26:24;;;;;;;25.20;13.40;;;;;;;13.94;100.00;64123.25;4963158;29;20028;-93
2023/05/05 06:28:50;;;;;;;24.17;11.77;;;;;;;14.03;100.00;64132.31;4962884;29;20474;-93
2023/05/05 06:31:16;;;;;;;20.80;12.80;;;;;;;14.12;100.00;64141.56;4962460;29;20046;-95
2023/05/05 06:33:41;;;;;;;19.87;12.27;;;;;;;14.21;100.00;64151.00;4968693;29;20023;-93
2023/05/05 06:36:07;;;;;;;20.85;12.57;;;;;;;14.31;100.00;64160.91;4968364;29;20039;-93
2023/05/05 06:38:32;;;;;;;20.50;12.43;;;;;;;14.40;100.00;64169.81;4972842;29;20038;-93
2023/05/05 06:40:57;;;;;;;22.40;12.40;;;;;;;14.49;100.00;64178.97;4979761;29;20046;-93
2023/05/05 06:43:23;;;;;;;19.03;11.77;;;;;;;14.59;100.00;64188.81;4980659;28;20022;-93
2023/05/05 06:45:48;;;;;;;20.77;11.95;;;;;;;14.68;100.00;64198.75;4974064;29;20083;-93
2023/05/05 06:48:13;;;;;;;20.83;11.47;;;;;;;14.78;99.81;64208.44;4973419;29;20031;-92
2023/05/05 06:50:39;;;;;;;17.27;11.77;;;;;;;14.88;98.77;64218.13;4975565;28;20043;-93
2023/05/05 06:53:04;;;;;;;20.40;10.65;;;;;;;14.97;98.73;64227.19;4957640;29;20063;-93
2023/05/05 06:55:30;;;;;;;19.57;11.27;;;;;;;15.05;98.79;64235.78;4965965;29;20019;-91
2023/05/05 06:57:55;;;;;;;16.57;11.27;;;;;;;15.14;98.86;64245.13;4964869;28;20034;-92
2023/05/05 07:00:21;;;;;;;17.07;10.37;;;;;;;15.22;97.07;64253.38;4964670;29;20502;-92
2023/05/05 07:02:46;;;;;;;14.38;9.75;;;;;;;15.32;96.86;64262.63;4964717;29;20415;-94
2023/05/05 07:05:12;;;;;;;11.80;8.13;;;;;;;15.40;92.66;64271.38;4963946;29;20031;-94
2023/05/05 07:07:50;;;;;;;12.35;9.00;;;;;;;15.48;92.89;64280.22;4964328;28;20766;-94
2023/05/05 07:10:15;;;;;;;15.52;8.32;;;;;;;15.57;92.35;64288.56;4963756;29;20078;-94
2023/05/05 07:12:40;;;;;;;12.37;8.70;;;;;;;15.65;92.06;64296.75;4961092;29;20028;-94
2023/05/05 07:15:06;;;;;;;14.10;7.80;;;;;;;15.73;91.25;64305.25;4954975;29;20709;-94
2023/05/05 07:17:31;;;;;;;13.93;8.70;;;;;;;15.82;90.85;64314.00;4955289;29;20106;-94
2023/05/05 07:19:57;;;;;;;9.40;7.67;;;;;;;15.90;88.92;64322.56;4955168;29;20368;-94
2023/05/05 07:22:22;;;;;;;15.27;7.77;;;;;;;15.99;89.00;64331.91;4954859;29;20027;-94
2023/05/05 07:24:47;;;;;;;13.93;7.60;;;;;;;16.08;90.04;64341.72;4954903;29;20444;-94
2023/05/05 07:27:13;;;;;;;10.10;7.27;;;;;;;16.18;86.01;64351.50;4954272;29;20027;-93
2023/05/05 07:29:38;;;;;;;13.07;7.20;;;;;;;16.30;84.27;64363.78;4954493;29;20034;-92
2023/05/05 07:32:03;;;;;;;10.38;6.88;;;;;;;16.46;80.47;64379.13;4954992;29;20036;-93
2023/05/05 07:34:31;;;;;;;8.20;5.70;;;;;;;16.63;76.54;64396.41;4955640;29;20050;-94
2023/05/05 07:36:56;;;;;;;9.35;5.97;;;;;;;16.81;73.43;64415.19;4960303;29;20030;-94
2023/05/05 07:39:22;;;;;;;8.50;5.93;;;;;;;17.00;73.77;64433.81;4961034;29;20031;-93
2023/05/05 07:41:47;;;;;;;8.03;5.30;;;;;;;17.18;71.38;64452.03;4955258;29;20106;-92
2023/05/05 07:44:12;;;;;;;9.70;5.70;;;;;;;17.35;70.54;64469.41;4954049;29;20023;-92
2023/05/05 07:46:38;;;;;;;9.67;5.70;;;;;;;17.51;70.88;64485.34;4953549;29;20030;-92
2023/05/05 07:49:03;;;;;;;9.38;5.30;;;;;;;17.65;70.84;64500.06;4954054;29;20423;-92
2023/05/05 07:51:28;;;;;;;8.07;5.97;;;;;;;17.78;70.94;64512.91;4954903;29;20031;-92
2023/05/05 07:53:54;;;;;;;9.47;5.53;;;;;;;17.88;72.10;64523.63;4955679;29;20402;-93
2023/05/05 07:56:19;;;;;;;9.88;5.72;;;;;;;17.98;72.49;64534.16;4953922;29;20501;-93
2023/05/05 07:58:45;;;;;;;8.90;5.73;;;;;;;18.09;71.96;64545.13;4954851;29;20031;-93
2023/05/05 08:01:11;;;;;;;9.60;5.50;;;;;;;18.20;69.84;64556.38;4954431;29;20136;-93
2023/05/05 08:03:37;;;;;;;10.40;6.03;;;;;;;18.31;69.84;64567.59;4954310;29;20090;-93
2023/05/05 08:06:09;;;;;;;9.43;5.23;;;;;;;18.42;70.38;64578.63;4953549;29;20028;-93
2023/05/05 08:08:34;;;;;;;9.93;5.15;;;;;;;18.53;68.70;64589.66;4953041;28;20078;-93
2023/05/05 08:11:00;;;;;;;7.28;4.70;;;;;;;18.63;69.14;64600.25;4958162;29;20470;-93
2023/05/05 08:13:27;;;;;;;7.93;5.70;;;;;;;18.73;67.55;64609.88;4954673;29;20035;-93
2023/05/05 08:15:52;;;;;;;9.90;5.63;;;;;;;18.81;68.77;64618.50;4955031;29;20386;-92
2023/05/05 08:18:18;;;;;;;10.57;6.03;;;;;;;18.89;69.58;64626.69;4954595;29;20039;-93
2023/05/05 08:20:43;;;;;;;8.23;4.87;;;;;;;18.97;68.39;64634.50;4956889;29;20026;-93
2023/05/05 08:23:08;;;;;;;8.02;4.63;;;;;;;19.04;67.12;64642.09;4954611;29;20034;-93
2023/05/05 08:25:34;;;;;;;9.23;5.23;;;;;;;19.12;65.96;64650.03;4953251;29;20060;-92
2023/05/05 08:27:59;;;;;;;6.17;5.10;;;;;;;19.21;64.24;64659.66;4952486;29;20044;-94
2023/05/05 08:30:25;;;;;;;6.67;4.53;;;;;;;19.31;64.98;64669.59;4936149;29;20109;-94
2023/05/05 08:32:50;;;;;;;11.10;5.07;;;;;;;19.41;63.23;64680.38;4953822;29;20027;-94
2023/05/05 08:35:15;;;;;;;6.80;4.13;;;;;;;19.53;61.88;64692.44;4953025;29;20039;-92
2023/05/05 08:37:40;;;;;;;7.23;4.30;;;;;;;19.65;60.38;64704.47;4953190;29;20067;-94
2023/05/05 08:40:06;;;;;;;5.93;3.87;;;;;;;19.77;60.82;64716.53;4952672;29;20126;-93
2023/05/05 08:42:33;;;;;;;5.05;3.88;;;;;;;19.90;59.73;64730.25;4953197;29;20028;-94
2023/05/05 08:44:58;;;;;;;6.28;4.53;;;;;;;20.04;59.55;64744.06;4935655;29;20023;-94
2023/05/05 08:47:23;;;;;;;6.30;4.23;;;;;;;20.18;58.66;64759.13;4953104;29;20042;-94
2023/05/05 08:49:52;;;;;;;7.40;4.43;;;;;;;20.32;57.69;64773.03;4953377;29;20055;-95
2023/05/05 08:52:22;;;;;;;6.97;4.78;;;;;;;20.45;58.54;64786.31;4958920;29;20446;-94
2023/05/05 08:54:53;;;;;;;7.18;4.93;;;;;;;20.57;57.14;64798.72;4963377;29;20029;-93
2023/05/05 08:57:31;;;;;;;12.30;5.15;;;;;;;20.67;58.77;64808.53;4957709;28;20130;-93
2023/05/05 08:59:57;;;;;;;8.70;5.10;;;;;;;20.75;59.74;64816.47;4957974;29;20035;-92
2023/05/05 09:02:27;;;;;;;7.10;5.33;;;;;;;20.81;59.67;64823.44;4958940;29;20271;-93
2023/05/05 09:04:52;;;;;;;6.20;4.68;;;;;;;20.88;60.33;64830.81;4959558;29;20483;-93
2023/05/05 09:07:18;;;;;;;6.83;4.17;;;;;;;20.97;58.52;64838.94;4959353;29;20027;-93
2023/05/05 09:09:43;;;;;;;7.73;4.13;;;;;;;21.05;59.15;64847.28;4939105;29;20287;-93
2023/05/05 09:12:09;;;;;;;6.47;4.50;;;;;;;21.12;57.87;64854.16;4956816;29;20046;-93
2023/05/05 09:14:34;;;;;;;6.90;4.32;;;;;;;21.18;58.02;64860.88;4958340;29;20027;-93
2023/05/05 09:17:01;;;;;;;5.87;4.40;;;;;;;21.26;57.25;64869.56;4961423;29;20492;-93
2023/05/05 09:19:27;;;;;;;6.50;4.32;;;;;;;21.36;57.90;64879.63;4959275;28;20031;-93
2023/05/05 09:21:53;;;;;;;9.07;3.90;;;;;;;21.46;55.65;64889.75;4958299;29;20050;-92
2023/05/05 09:24:18;;;;;;;10.32;4.20;;;;;;;21.57;55.53;64900.81;4961165;29;20054;-92
2023/05/05 09:26:47;;;;;;;8.10;4.03;;;;;;;21.69;54.71;64912.72;4961503;29;20027;-93
2023/05/05 09:29:20;;;;;;;6.45;4.10;;;;;;;21.78;55.28;64922.69;4958995;29;20019;-92
2023/05/05 09:32:07;;;;;;;7.68;3.38;;;;;;;21.86;57.27;64931.00;4957537;29;20119;-92
2023/05/05 09:34:34;;;;;;;5.60;3.65;;;;;;;21.93;55.39;64938.09;4959053;29;20091;-92
2023/05/05 09:36:59;;;;;;;6.70;3.17;;;;;;;21.99;56.15;64944.41;4940539;29;20489;-91
2023/05/05 09:39:25;;;;;;;7.63;3.53;;;;;;;22.05;57.42;64950.44;4958773;29;20405;-92
2023/05/05 09:41:50;;;;;;;3.93;3.30;;;;;;;22.09;55.51;64954.44;4956986;29;20035;-92
2023/05/05 09:44:15;;;;;;;7.45;3.00;;;;;;;22.12;56.84;64957.38;4958675;29;20028;-93
2023/05/05 09:46:51;;;;;;;10.00;2.50;;;;;;;22.14;55.86;64959.47;4957417;29;20439;-93
2023/05/05 09:49:22;;;;;;;4.93;2.90;;;;;;;22.14;56.12;64959.66;4957397;29;20029;-93
2023/05/05 09:51:48;;;;;;;5.60;3.00;;;;;;;22.13;57.21;64959.75;4941056;29;20035;-93
2023/05/05 09:54:29;;;;;;;5.37;3.37;;;;;;;22.13;58.28;64959.22;4960857;29;20027;-93
2023/05/05 09:56:55;;;;;;;5.43;3.15;;;;;;;22.11;57.24;64957.91;4961749;29;20560;-93
2023/05/05 09:59:21;;;;;;;6.00;3.05;;;;;;;22.10;57.74;64956.44;4964929;29;20149;-93
2023/05/05 10:01:48;;;;;;;4.15;2.50;;;;;;;22.09;54.47;64954.69;4960525;29;20120;-94
2023/05/05 10:04:25;;;;;;;5.18;2.45;;;;;;;22.08;56.67;64954.63;4962341;29;20027;-91
2023/05/05 10:06:50;;;;;;;5.30;2.53;;;;;;;22.09;55.59;64955.97;4960400;29;20031;-92
2023/05/05 10:09:15;;;;;;;8.37;2.90;;;;;;;22.11;55.05;64957.81;4959700;29;20043;-93
2023/05/05 10:11:41;;;;;;;3.43;2.57;;;;;;;22.14;54.38;64960.84;4959425;29;20038;-92
2023/05/05 10:14:07;;;;;;;4.15;2.50;;;;;;;22.16;54.47;64963.75;4960434;29;20451;-92
2023/05/05 10:16:35;;;;;;;5.43;2.83;;;;;;;22.19;54.76;64966.88;4960396;29;20028;-94
2023/05/05 10:19:02;;;;;;;4.10;2.93;;;;;;;22.23;54.67;64970.63;4943176;29;20705;-93
2023/05/05 10:21:32;;;;;;;6.28;3.47;;;;;;;22.25;54.63;64973.31;4959064;29;20034;-93
2023/05/05 10:24:08;;;;;;;6.88;3.70;;;;;;;22.26;55.72;64974.31;4958537;29;20028;-92
2023/05/05 10:26:38;;;;;;;5.55;3.70;;;;;;;22.25;58.13;64972.66;4959270;29;20024;-93
2023/05/05 10:29:10;;;;;;;13.15;5.28;;;;;;;22.20;71.41;64967.88;4960052;29;20019;-93
2023/05/05 10:31:46;;;;;;;15.18;5.30;;;;;;;22.06;87.40;64953.78;4954808;28;20035;-90
2023/05/05 10:34:25;;;;;;;26.20;5.88;;;;;;;21.83;100.00;64930.06;4955465;29;20024;-89
2023/05/05 10:36:59;;;;;;;18.88;6.40;;;;;;;21.56;100.00;64902.94;4954730;29;20027;-91
2023/05/05 10:39:25;;;;;;;16.15;5.90;;;;;;;21.30;100.00;64876.13;4954399;29;20030;-92
2023/05/05 10:41:53;;;;;;;14.93;6.30;;;;;;;21.05;100.00;64850.66;4956675;29;20026;-91
2023/05/05 10:44:24;;;;;;;9.23;6.00;;;;;;;20.82;100.00;64826.91;4955787;29;20313;-92
2023/05/05 10:47:02;;;;;;;13.18;5.07;;;;;;;20.60;100.00;64804.25;4955715;29;20035;-92
2023/05/05 10:49:49;;;;;;;14.57;5.85;;;;;;;20.39;100.00;64783.59;4955463;29;20038;-91
2023/05/05 10:52:38;;;;;;;11.75;4.80;;;;;;;20.20;100.00;64763.34;4954157;28;20039;-91
2023/05/05 10:55:41;;;;;;;8.55;5.05;;;;;;;20.00;100.00;64743.25;4938622;29;20047;-92
2023/05/05 10:58:40;;;;;;;14.27;7.45;;;;;;;19.82;100.00;64725.34;4957351;28;20042;-91
2023/05/05 11:01:22;;;;;;;18.58;7.20;;;;;;;19.64;100.00;64706.50;4960042;28;20257;-91
2023/05/05 11:04:22;;;;;;;13.88;7.28;;;;;;;19.45;100.00;64687.28;4930428;29;20414;-91
2023/05/05 11:07:06;;;;;;;14.75;7.68;;;;;;;19.26;100.00;64667.88;4938573;28;20077;-91
2023/05/05 11:09:55;;;;;;;15.47;7.67;;;;;;;19.08;100.00;64648.88;4955520;28;20059;-90
2023/05/05 11:12:24;;;;;;;14.03;8.50;;;;;;;18.89;100.00;64630.31;4954666;28;20283;-90
2023/05/05 11:15:26;;;;;;;17.55;8.55;;;;;;;18.73;100.00;64613.66;4954653;29;20068;-90
2023/05/05 11:18:01;;;;;;;15.45;7.90;;;;;;;18.55;100.00;64596.13;4937980;29;20046;-90
2023/05/05 11:20:42;;;;;;;16.92;8.40;;;;;;;18.37;100.00;64577.56;4958883;29;20031;-91
2023/05/05 11:23:07;;;;;;;13.55;7.10;;;;;;;18.19;100.00;64558.91;4940186;29;20491;-91
2023/05/05 11:25:39;;;;;;;14.90;7.57;;;;;;;18.01;100.00;64540.44;4963524;29;20031;-91